sensor_id;sensor_type;location;lat;lon;timestamp;pressure;altitude;pressure_sealevel;temperature;humidity
49397;BME280;35615;41.410;2.194;2023-01-29T00:00:28;102173.84;;;11.95;36.17
49397;BME280;35615;41.410;2.194;2023-01-29T00:03:11;102182.69;;;11.99;36.22
49397;BME280;35615;41.410;2.194;2023-01-29T00:05:48;102181.00;;;11.99;36.24
49397;BME280;35615;41.410;2.194;2023-01-29T00:08:19;102177.75;;;12.03;36.30
49397;BME280;35615;41.410;2.194;2023-01-29T00:10:46;102172.41;;;12.00;36.21
49397;BME280;35615;41.410;2.194;2023-01-29T00:13:18;102172.88;;;11.93;36.59
49397;BME280;35615;41.410;2.194;2023-01-29T00:15:58;102167.38;;;11.87;36.77
49397;BME280;35615;41.410;2.194;2023-01-29T00:18:27;102176.72;;;12.00;36.22
49397;BME280;35615;41.410;2.194;2023-01-29T00:20:55;102182.59;;;11.97;36.49
49397;BME280;35615;41.410;2.194;2023-01-29T00:23:23;102184.69;;;11.88;36.82
49397;BME280;35615;41.410;2.194;2023-01-29T00:25:58;102180.66;;;11.78;36.77
49397;BME280;35615;41.410;2.194;2023-01-29T00:28:32;102173.16;;;11.83;36.54
49397;BME280;35615;41.410;2.194;2023-01-29T00:31:17;102172.44;;;11.85;36.69
49397;BME280;35615;41.410;2.194;2023-01-29T00:33:47;102173.25;;;11.70;37.26
49397;BME280;35615;41.410;2.194;2023-01-29T00:36:21;102164.25;;;11.78;36.97
49397;BME280;35615;41.410;2.194;2023-01-29T00:38:59;102164.78;;;11.87;36.73
49397;BME280;35615;41.410;2.194;2023-01-29T00:41:33;102165.53;;;12.01;36.57
49397;BME280;35615;41.410;2.194;2023-01-29T00:44:27;102164.56;;;11.99;36.83
49397;BME280;35615;41.410;2.194;2023-01-29T00:47:25;102161.72;;;11.94;36.94
49397;BME280;35615;41.410;2.194;2023-01-29T00:50:09;102159.56;;;12.02;36.91
49397;BME280;35615;41.410;2.194;2023-01-29T00:52:45;102154.44;;;12.03;36.84
49397;BME280;35615;41.410;2.194;2023-01-29T00:55:25;102153.03;;;12.08;37.24
49397;BME280;35615;41.410;2.194;2023-01-29T00:58:02;102151.03;;;12.04;37.50
49397;BME280;35615;41.410;2.194;2023-01-29T01:00:36;102162.06;;;12.16;36.89
49397;BME280;35615;41.410;2.194;2023-01-29T01:03:12;102160.06;;;12.11;37.18
49397;BME280;35615;41.410;2.194;2023-01-29T01:05:42;102159.56;;;12.02;37.53
49397;BME280;35615;41.410;2.194;2023-01-29T01:08:21;102164.75;;;12.18;37.50
49397;BME280;35615;41.410;2.194;2023-01-29T01:11:16;102165.81;;;12.21;37.47
49397;BME280;35615;41.410;2.194;2023-01-29T01:13:47;102166.44;;;12.17;37.34
49397;BME280;35615;41.410;2.194;2023-01-29T01:16:23;102165.78;;;12.05;37.44
49397;BME280;35615;41.410;2.194;2023-01-29T01:19:02;102173.47;;;12.04;37.51
49397;BME280;35615;41.410;2.194;2023-01-29T01:24:15;102176.72;;;12.16;37.91
49397;BME280;35615;41.410;2.194;2023-01-29T01:26:54;102179.41;;;12.17;37.56
49397;BME280;35615;41.410;2.194;2023-01-29T01:29:34;102176.50;;;12.11;37.32
49397;BME280;35615;41.410;2.194;2023-01-29T01:32:22;102179.97;;;12.12;37.31
49397;BME280;35615;41.410;2.194;2023-01-29T01:35:04;102182.47;;;12.10;37.10
49397;BME280;35615;41.410;2.194;2023-01-29T01:37:39;102189.28;;;12.08;37.20
49397;BME280;35615;41.410;2.194;2023-01-29T01:40:17;102192.91;;;12.12;37.22
49397;BME280;35615;41.410;2.194;2023-01-29T01:43:00;102190.88;;;12.06;36.99
49397;BME280;35615;41.410;2.194;2023-01-29T01:45:38;102195.34;;;12.09;37.00
49397;BME280;35615;41.410;2.194;2023-01-29T01:48:13;102190.41;;;12.13;37.34
49397;BME280;35615;41.410;2.194;2023-01-29T01:50:50;102190.72;;;12.03;37.26
49397;BME280;35615;41.410;2.194;2023-01-29T01:56:51;102194.03;;;11.86;37.11
49397;BME280;35615;41.410;2.194;2023-01-29T02:02:28;102192.47;;;11.88;36.95
49397;BME280;35615;41.410;2.194;2023-01-29T02:05:16;102189.16;;;11.76;37.54
49397;BME280;35615;41.410;2.194;2023-01-29T02:08:05;102187.53;;;11.78;37.42
49397;BME280;35615;41.410;2.194;2023-01-29T02:10:56;102195.13;;;11.75;37.34
49397;BME280;35615;41.410;2.194;2023-01-29T02:13:50;102195.59;;;11.82;37.71
49397;BME280;35615;41.410;2.194;2023-01-29T02:16:27;102196.91;;;11.90;37.11
49397;BME280;35615;41.410;2.194;2023-01-29T02:19:22;102190.25;;;11.79;37.43
49397;BME280;35615;41.410;2.194;2023-01-29T02:30:39;102197.81;;;11.91;37.26
49397;BME280;35615;41.410;2.194;2023-01-29T02:36:29;102191.56;;;11.87;37.48
49397;BME280;35615;41.410;2.194;2023-01-29T02:42:15;102191.75;;;11.90;37.74
49397;BME280;35615;41.410;2.194;2023-01-29T02:45:11;102187.28;;;11.88;37.83
49397;BME280;35615;41.410;2.194;2023-01-29T02:47:58;102195.06;;;11.88;37.82
49397;BME280;35615;41.410;2.194;2023-01-29T02:50:59;102188.63;;;11.81;37.22
49397;BME280;35615;41.410;2.194;2023-01-29T02:53:41;102183.81;;;11.87;37.45
49397;BME280;35615;41.410;2.194;2023-01-29T02:56:24;102182.97;;;11.74;38.02
49397;BME280;35615;41.410;2.194;2023-01-29T02:59:44;102189.59;;;11.69;37.44
49397;BME280;35615;41.410;2.194;2023-01-29T03:02:40;102186.03;;;11.81;37.36
49397;BME280;35615;41.410;2.194;2023-01-29T03:06:24;102192.03;;;11.80;37.52
49397;BME280;35615;41.410;2.194;2023-01-29T03:08:42;102193.25;;;11.72;36.98
49397;BME280;35615;41.410;2.194;2023-01-29T03:11:25;102194.78;;;11.69;37.21
49397;BME280;35615;41.410;2.194;2023-01-29T03:14:04;102191.38;;;11.70;36.90
49397;BME280;35615;41.410;2.194;2023-01-29T03:16:40;102195.88;;;11.57;36.99
49397;BME280;35615;41.410;2.194;2023-01-29T03:19:29;102205.59;;;11.61;36.92
49397;BME280;35615;41.410;2.194;2023-01-29T03:22:17;102206.22;;;11.57;36.89
49397;BME280;35615;41.410;2.194;2023-01-29T03:28:19;102211.06;;;11.22;37.33
49397;BME280;35615;41.410;2.194;2023-01-29T03:31:14;102201.84;;;11.27;37.27
49397;BME280;35615;41.410;2.194;2023-01-29T03:37:07;102214.78;;;11.12;37.39
49397;BME280;35615;41.410;2.194;2023-01-29T03:39:40;102222.91;;;11.18;37.12
49397;BME280;35615;41.410;2.194;2023-01-29T03:42:33;102214.72;;;11.25;37.07
49397;BME280;35615;41.410;2.194;2023-01-29T03:48:22;102221.66;;;11.26;37.70
49397;BME280;35615;41.410;2.194;2023-01-29T03:54:01;102214.00;;;11.28;37.60
49397;BME280;35615;41.410;2.194;2023-01-29T03:57:08;102217.75;;;11.33;37.44
49397;BME280;35615;41.410;2.194;2023-01-29T03:59:55;102212.75;;;11.21;37.21
49397;BME280;35615;41.410;2.194;2023-01-29T04:05:52;102219.69;;;11.07;37.21
49397;BME280;35615;41.410;2.194;2023-01-29T04:08:38;102221.91;;;11.16;37.46
49397;BME280;35615;41.410;2.194;2023-01-29T04:11:14;102223.91;;;11.20;37.44
49397;BME280;35615;41.410;2.194;2023-01-29T04:13:47;102216.91;;;11.19;37.43
49397;BME280;35615;41.410;2.194;2023-01-29T04:16:33;102221.66;;;11.26;37.48
49397;BME280;35615;41.410;2.194;2023-01-29T04:19:26;102224.97;;;11.24;37.41
49397;BME280;35615;41.410;2.194;2023-01-29T04:22:08;102236.72;;;11.19;37.27
49397;BME280;35615;41.410;2.194;2023-01-29T04:24:44;102232.72;;;11.24;37.10
49397;BME280;35615;41.410;2.194;2023-01-29T04:27:25;102241.00;;;11.18;37.46
49397;BME280;35615;41.410;2.194;2023-01-29T04:39:21;102232.09;;;11.13;37.16
49397;BME280;35615;41.410;2.194;2023-01-29T04:44:50;102238.66;;;11.08;37.13
49397;BME280;35615;41.410;2.194;2023-01-29T04:49:12;102236.47;;;11.14;37.15
49397;BME280;35615;41.410;2.194;2023-01-29T04:51:15;102238.94;;;10.98;37.34
49397;BME280;35615;41.410;2.194;2023-01-29T04:54:15;102239.03;;;10.99;37.19
49397;BME280;35615;41.410;2.194;2023-01-29T04:57:31;102242.78;;;11.04;37.22
49397;BME280;35615;41.410;2.194;2023-01-29T05:00:15;102253.28;;;10.93;37.31
49397;BME280;35615;41.410;2.194;2023-01-29T05:02:47;102254.34;;;10.96;37.12
49397;BME280;35615;41.410;2.194;2023-01-29T05:05:18;102256.16;;;10.97;37.23
49397;BME280;35615;41.410;2.194;2023-01-29T05:07:56;102254.59;;;10.86;37.43
49397;BME280;35615;41.410;2.194;2023-01-29T05:10:28;102258.28;;;10.90;37.45
49397;BME280;35615;41.410;2.194;2023-01-29T05:13:09;102267.50;;;10.86;37.28
49397;BME280;35615;41.410;2.194;2023-01-29T05:15:49;102269.41;;;10.89;37.56
49397;BME280;35615;41.410;2.194;2023-01-29T05:18:26;102265.94;;;10.88;37.36
49397;BME280;35615;41.410;2.194;2023-01-29T05:21:10;102265.53;;;10.82;36.98
49397;BME280;35615;41.410;2.194;2023-01-29T05:23:37;102269.69;;;10.93;37.25
49397;BME280;35615;41.410;2.194;2023-01-29T05:26:22;102268.59;;;10.90;37.24
49397;BME280;35615;41.410;2.194;2023-01-29T05:29:14;102276.88;;;10.84;37.28
49397;BME280;35615;41.410;2.194;2023-01-29T05:31:44;102272.22;;;10.79;37.59
49397;BME280;35615;41.410;2.194;2023-01-29T05:34:12;102278.16;;;10.91;36.74
49397;BME280;35615;41.410;2.194;2023-01-29T05:36:43;102293.09;;;10.82;37.34
49397;BME280;35615;41.410;2.194;2023-01-29T05:39:17;102280.81;;;10.92;37.35
49397;BME280;35615;41.410;2.194;2023-01-29T05:41:49;102282.69;;;10.95;37.22
49397;BME280;35615;41.410;2.194;2023-01-29T05:44:25;102286.47;;;11.00;37.49
49397;BME280;35615;41.410;2.194;2023-01-29T05:47:22;102303.47;;;10.96;37.77
49397;BME280;35615;41.410;2.194;2023-01-29T05:49:53;102300.22;;;10.99;37.04
49397;BME280;35615;41.410;2.194;2023-01-29T05:52:21;102304.66;;;11.01;37.06
49397;BME280;35615;41.410;2.194;2023-01-29T05:54:51;102301.91;;;10.98;37.28
49397;BME280;35615;41.410;2.194;2023-01-29T05:57:27;102310.78;;;10.89;37.02
49397;BME280;35615;41.410;2.194;2023-01-29T06:00:00;102312.16;;;10.84;37.19
49397;BME280;35615;41.410;2.194;2023-01-29T06:02:38;102318.97;;;10.68;37.30
49397;BME280;35615;41.410;2.194;2023-01-29T06:05:18;102322.41;;;10.54;37.56
49397;BME280;35615;41.410;2.194;2023-01-29T06:07:49;102326.66;;;10.67;37.34
49397;BME280;35615;41.410;2.194;2023-01-29T06:10:18;102330.03;;;10.53;37.98
49397;BME280;35615;41.410;2.194;2023-01-29T06:12:46;102333.50;;;10.66;37.51
49397;BME280;35615;41.410;2.194;2023-01-29T06:15:14;102327.53;;;10.67;37.39
49397;BME280;35615;41.410;2.194;2023-01-29T06:17:42;102334.41;;;10.67;37.25
49397;BME280;35615;41.410;2.194;2023-01-29T06:20:12;102333.88;;;10.72;37.02
49397;BME280;35615;41.410;2.194;2023-01-29T06:22:54;102336.28;;;10.69;36.95
49397;BME280;35615;41.410;2.194;2023-01-29T06:25:26;102340.75;;;10.72;36.83
49397;BME280;35615;41.410;2.194;2023-01-29T06:28:03;102350.31;;;10.60;37.24
49397;BME280;35615;41.410;2.194;2023-01-29T06:30:30;102342.06;;;10.52;36.80
49397;BME280;35615;41.410;2.194;2023-01-29T06:32:58;102343.47;;;10.34;36.93
49397;BME280;35615;41.410;2.194;2023-01-29T06:35:35;102357.38;;;10.36;36.91
49397;BME280;35615;41.410;2.194;2023-01-29T06:38:23;102354.63;;;10.33;37.10
49397;BME280;35615;41.410;2.194;2023-01-29T06:40:54;102366.47;;;10.04;37.48
49397;BME280;35615;41.410;2.194;2023-01-29T06:43:27;102362.81;;;10.01;37.32
49397;BME280;35615;41.410;2.194;2023-01-29T06:45:56;102370.28;;;10.09;37.59
49397;BME280;35615;41.410;2.194;2023-01-29T06:48:39;102361.63;;;10.09;37.52
49397;BME280;35615;41.410;2.194;2023-01-29T06:51:07;102373.41;;;9.92;37.85
49397;BME280;35615;41.410;2.194;2023-01-29T06:56:39;102375.81;;;10.02;37.70
49397;BME280;35615;41.410;2.194;2023-01-29T06:59:12;102380.97;;;10.02;38.12
49397;BME280;35615;41.410;2.194;2023-01-29T07:01:58;102377.22;;;10.10;37.67
49397;BME280;35615;41.410;2.194;2023-01-29T07:04:32;102376.81;;;10.17;38.28
49397;BME280;35615;41.410;2.194;2023-01-29T07:07:04;102370.97;;;10.20;37.65
49397;BME280;35615;41.410;2.194;2023-01-29T07:09:53;102383.94;;;9.95;37.67
49397;BME280;35615;41.410;2.194;2023-01-29T07:12:21;102381.25;;;10.07;37.68
49397;BME280;35615;41.410;2.194;2023-01-29T07:15:03;102395.88;;;10.06;37.98
49397;BME280;35615;41.410;2.194;2023-01-29T07:17:41;102397.34;;;9.89;37.72
49397;BME280;35615;41.410;2.194;2023-01-29T07:20:12;102405.56;;;9.97;37.89
49397;BME280;35615;41.410;2.194;2023-01-29T07:22:50;102411.53;;;9.96;38.31
49397;BME280;35615;41.410;2.194;2023-01-29T07:25:17;102414.34;;;9.74;38.16
49397;BME280;35615;41.410;2.194;2023-01-29T07:28:03;102421.47;;;9.90;37.72
49397;BME280;35615;41.410;2.194;2023-01-29T07:30:36;102428.94;;;9.99;37.95
49397;BME280;35615;41.410;2.194;2023-01-29T07:33:11;102426.91;;;9.95;37.86
49397;BME280;35615;41.410;2.194;2023-01-29T07:35:40;102431.38;;;9.97;38.03
49397;BME280;35615;41.410;2.194;2023-01-29T07:38:19;102436.78;;;10.00;38.46
49397;BME280;35615;41.410;2.194;2023-01-29T07:40:47;102446.63;;;10.06;38.14
49397;BME280;35615;41.410;2.194;2023-01-29T07:43:24;102448.13;;;10.15;38.05
49397;BME280;35615;41.410;2.194;2023-01-29T07:46:05;102448.13;;;10.15;38.43
49397;BME280;35615;41.410;2.194;2023-01-29T07:48:35;102457.56;;;10.15;38.11
49397;BME280;35615;41.410;2.194;2023-01-29T07:51:16;102460.56;;;10.21;38.20
49397;BME280;35615;41.410;2.194;2023-01-29T07:53:58;102463.72;;;10.17;38.65
49397;BME280;35615;41.410;2.194;2023-01-29T07:56:27;102469.78;;;10.17;38.55
49397;BME280;35615;41.410;2.194;2023-01-29T07:58:58;102476.34;;;10.12;38.36
49397;BME280;35615;41.410;2.194;2023-01-29T08:01:36;102479.28;;;10.05;38.60
49397;BME280;35615;41.410;2.194;2023-01-29T08:04:04;102481.50;;;10.12;38.19
49397;BME280;35615;41.410;2.194;2023-01-29T08:06:31;102478.78;;;9.98;38.68
49397;BME280;35615;41.410;2.194;2023-01-29T08:09:07;102485.94;;;10.02;38.38
49397;BME280;35615;41.410;2.194;2023-01-29T08:11:39;102491.91;;;10.01;38.79
49397;BME280;35615;41.410;2.194;2023-01-29T08:14:12;102497.41;;;9.94;38.50
49397;BME280;35615;41.410;2.194;2023-01-29T08:16:39;102497.75;;;9.98;38.79
49397;BME280;35615;41.410;2.194;2023-01-29T08:19:24;102503.38;;;9.68;39.31
49397;BME280;35615;41.410;2.194;2023-01-29T08:22:03;102508.09;;;9.86;39.32
49397;BME280;35615;41.410;2.194;2023-01-29T08:24:34;102510.03;;;9.89;39.03
49397;BME280;35615;41.410;2.194;2023-01-29T08:27:30;102509.63;;;9.96;39.09
49397;BME280;35615;41.410;2.194;2023-01-29T08:29:58;102508.00;;;9.85;39.62
49397;BME280;35615;41.410;2.194;2023-01-29T08:32:31;102527.25;;;10.02;39.57
49397;BME280;35615;41.410;2.194;2023-01-29T08:34:58;102534.94;;;10.13;39.04
49397;BME280;35615;41.410;2.194;2023-01-29T08:37:28;102536.13;;;10.18;38.97
49397;BME280;35615;41.410;2.194;2023-01-29T08:40:01;102528.97;;;10.39;38.60
49397;BME280;35615;41.410;2.194;2023-01-29T08:42:41;102531.81;;;10.56;39.25
49397;BME280;35615;41.410;2.194;2023-01-29T08:45:10;102531.09;;;10.58;38.83
49397;BME280;35615;41.410;2.194;2023-01-29T08:47:48;102527.63;;;10.71;38.73
49397;BME280;35615;41.410;2.194;2023-01-29T08:50:18;102535.50;;;10.86;37.98
49397;BME280;35615;41.410;2.194;2023-01-29T08:52:57;102535.81;;;11.03;37.26
49397;BME280;35615;41.410;2.194;2023-01-29T08:55:27;102534.59;;;11.25;37.05
49397;BME280;35615;41.410;2.194;2023-01-29T08:57:57;102546.72;;;11.39;36.55
49397;BME280;35615;41.410;2.194;2023-01-29T09:00:42;102535.09;;;11.87;35.46
49397;BME280;35615;41.410;2.194;2023-01-29T09:03:18;102543.53;;;11.98;36.09
49397;BME280;35615;41.410;2.194;2023-01-29T09:06:02;102541.00;;;12.42;35.48
49397;BME280;35615;41.410;2.194;2023-01-29T09:08:33;102542.59;;;12.84;34.89
49397;BME280;35615;41.410;2.194;2023-01-29T09:11:06;102549.19;;;13.08;34.74
49397;BME280;35615;41.410;2.194;2023-01-29T09:13:40;102552.44;;;13.19;34.35
49397;BME280;35615;41.410;2.194;2023-01-29T09:16:28;102554.78;;;13.16;34.44
49397;BME280;35615;41.410;2.194;2023-01-29T09:19:11;102555.28;;;13.24;34.28
49397;BME280;35615;41.410;2.194;2023-01-29T09:21:43;102559.50;;;13.22;34.02
49397;BME280;35615;41.410;2.194;2023-01-29T09:24:10;102561.16;;;13.06;34.26
49397;BME280;35615;41.410;2.194;2023-01-29T09:26:45;102569.22;;;13.11;33.77
49397;BME280;35615;41.410;2.194;2023-01-29T09:29:12;102565.47;;;13.06;33.98
49397;BME280;35615;41.410;2.194;2023-01-29T09:31:56;102569.56;;;13.17;33.85
49397;BME280;35615;41.410;2.194;2023-01-29T09:34:29;102569.78;;;12.91;34.07
49397;BME280;35615;41.410;2.194;2023-01-29T09:37:01;102577.13;;;12.83;34.17
49397;BME280;35615;41.410;2.194;2023-01-29T09:39:38;102570.88;;;12.79;34.24
49397;BME280;35615;41.410;2.194;2023-01-29T09:42:25;102576.84;;;12.78;34.12
49397;BME280;35615;41.410;2.194;2023-01-29T09:45:26;102579.34;;;12.62;34.28
49397;BME280;35615;41.410;2.194;2023-01-29T09:48:11;102579.97;;;12.73;34.52
49397;BME280;35615;41.410;2.194;2023-01-29T09:51:40;102578.03;;;12.69;34.26
49397;BME280;35615;41.410;2.194;2023-01-29T09:54:32;102581.41;;;12.68;33.90
49397;BME280;35615;41.410;2.194;2023-01-29T09:57:09;102582.75;;;12.91;34.03
49397;BME280;35615;41.410;2.194;2023-01-29T09:59:43;102585.25;;;13.19;33.65
49397;BME280;35615;41.410;2.194;2023-01-29T10:05:55;102592.75;;;13.60;32.79
49397;BME280;35615;41.410;2.194;2023-01-29T10:11:47;102592.00;;;13.93;32.57
49397;BME280;35615;41.410;2.194;2023-01-29T10:23:52;102594.78;;;14.45;32.99
49397;BME280;35615;41.410;2.194;2023-01-29T10:26:28;102586.31;;;14.66;32.20
49397;BME280;35615;41.410;2.194;2023-01-29T10:29:13;102578.81;;;15.07;31.66
49397;BME280;35615;41.410;2.194;2023-01-29T10:31:56;102586.28;;;15.35;31.35
49397;BME280;35615;41.410;2.194;2023-01-29T10:34:57;102582.50;;;16.03;30.16
49397;BME280;35615;41.410;2.194;2023-01-29T10:37:43;102581.63;;;16.22;29.53
49397;BME280;35615;41.410;2.194;2023-01-29T10:40:28;102580.66;;;16.60;28.93
49397;BME280;35615;41.410;2.194;2023-01-29T10:43:09;102571.94;;;16.60;29.74
49397;BME280;35615;41.410;2.194;2023-01-29T11:02:52;102535.66;;;18.97;26.90
49397;BME280;35615;41.410;2.194;2023-01-29T11:05:43;102532.53;;;19.37;25.72
49397;BME280;35615;41.410;2.194;2023-01-29T11:08:18;102533.28;;;19.92;25.92
49397;BME280;35615;41.410;2.194;2023-01-29T11:11:30;102530.56;;;20.19;24.48
49397;BME280;35615;41.410;2.194;2023-01-29T11:14:30;102520.78;;;20.81;24.64
49397;BME280;35615;41.410;2.194;2023-01-29T11:16:59;102517.34;;;20.83;24.42
49397;BME280;35615;41.410;2.194;2023-01-29T11:19:41;102516.22;;;21.08;23.83
49397;BME280;35615;41.410;2.194;2023-01-29T11:22:15;102506.34;;;21.36;23.60
49397;BME280;35615;41.410;2.194;2023-01-29T11:24:42;102491.41;;;21.77;24.25
49397;BME280;35615;41.410;2.194;2023-01-29T11:27:25;102498.09;;;22.05;22.37
49397;BME280;35615;41.410;2.194;2023-01-29T11:29:58;102490.28;;;22.58;23.08
49397;BME280;35615;41.410;2.194;2023-01-29T11:32:36;102490.13;;;23.03;23.13
49397;BME280;35615;41.410;2.194;2023-01-29T11:35:23;102487.56;;;23.08;22.14
49397;BME280;35615;41.410;2.194;2023-01-29T11:38:06;102478.94;;;23.19;21.56
49397;BME280;35615;41.410;2.194;2023-01-29T11:40:36;102470.59;;;23.54;22.00
49397;BME280;35615;41.410;2.194;2023-01-29T11:46:03;102458.13;;;24.20;20.48
49397;BME280;35615;41.410;2.194;2023-01-29T11:48:50;102461.94;;;23.63;20.30
49397;BME280;35615;41.410;2.194;2023-01-29T11:51:32;102458.75;;;23.94;21.96
49397;BME280;35615;41.410;2.194;2023-01-29T11:54:17;102448.59;;;24.32;20.07
49397;BME280;35615;41.410;2.194;2023-01-29T11:56:52;102445.53;;;24.98;20.65
49397;BME280;35615;41.410;2.194;2023-01-29T12:02:41;102432.66;;;25.82;19.30
49397;BME280;35615;41.410;2.194;2023-01-29T12:05:11;102433.56;;;26.14;19.47
49397;BME280;35615;41.410;2.194;2023-01-29T12:07:42;102429.16;;;26.56;18.50
49397;BME280;35615;41.410;2.194;2023-01-29T12:10:38;102425.53;;;27.00;17.89
49397;BME280;35615;41.410;2.194;2023-01-29T12:13:27;102427.28;;;27.17;18.16
49397;BME280;35615;41.410;2.194;2023-01-29T12:21:50;102423.56;;;27.49;16.71
49397;BME280;35615;41.410;2.194;2023-01-29T12:28:02;102421.72;;;27.68;17.37
49397;BME280;35615;41.410;2.194;2023-01-29T12:34:16;102402.66;;;28.26;16.28
49397;BME280;35615;41.410;2.194;2023-01-29T12:40:14;102392.31;;;28.87;16.49
49397;BME280;35615;41.410;2.194;2023-01-29T12:42:54;102384.16;;;29.04;15.82
49397;BME280;35615;41.410;2.194;2023-01-29T12:45:35;102382.31;;;29.11;15.89
49397;BME280;35615;41.410;2.194;2023-01-29T12:48:31;102382.38;;;29.03;15.47
49397;BME280;35615;41.410;2.194;2023-01-29T12:51:13;102379.09;;;28.80;15.68
49397;BME280;35615;41.410;2.194;2023-01-29T12:56:53;102373.88;;;28.71;16.85
49397;BME280;35615;41.410;2.194;2023-01-29T12:59:30;102379.47;;;27.28;17.65
49397;BME280;35615;41.410;2.194;2023-01-29T13:06:05;102374.31;;;26.84;18.25
49397;BME280;35615;41.410;2.194;2023-01-29T13:08:51;102370.56;;;27.40;18.21
49397;BME280;35615;41.410;2.194;2023-01-29T13:14:23;102366.38;;;26.75;18.92
49397;BME280;35615;41.410;2.194;2023-01-29T13:17:17;102372.66;;;26.37;18.61
49397;BME280;35615;41.410;2.194;2023-01-29T13:19:57;102367.31;;;26.57;18.63
49397;BME280;35615;41.410;2.194;2023-01-29T13:22:32;102370.75;;;25.38;19.43
49397;BME280;35615;41.410;2.194;2023-01-29T13:25:14;102363.81;;;26.32;19.67
49397;BME280;35615;41.410;2.194;2023-01-29T13:27:49;102347.94;;;25.77;19.49
49397;BME280;35615;41.410;2.194;2023-01-29T13:30:30;102359.97;;;24.86;20.60
49397;BME280;35615;41.410;2.194;2023-01-29T13:33:06;102353.13;;;25.48;20.48
49397;BME280;35615;41.410;2.194;2023-01-29T13:35:44;102353.19;;;25.62;19.97
49397;BME280;35615;41.410;2.194;2023-01-29T13:38:43;102344.38;;;26.21;19.04
49397;BME280;35615;41.410;2.194;2023-01-29T13:41:29;102337.34;;;26.08;19.50
49397;BME280;35615;41.410;2.194;2023-01-29T13:44:00;102340.84;;;26.22;19.55
49397;BME280;35615;41.410;2.194;2023-01-29T13:46:48;102339.06;;;26.34;19.55
49397;BME280;35615;41.410;2.194;2023-01-29T13:49:46;102339.84;;;25.25;20.54
49397;BME280;35615;41.410;2.194;2023-01-29T13:52:57;102343.31;;;25.03;20.38
49397;BME280;35615;41.410;2.194;2023-01-29T13:55:38;102333.78;;;25.66;19.66
49397;BME280;35615;41.410;2.194;2023-01-29T13:58:16;102337.25;;;25.46;19.67
49397;BME280;35615;41.410;2.194;2023-01-29T14:00:51;102330.22;;;25.56;20.04
49397;BME280;35615;41.410;2.194;2023-01-29T14:06:38;102326.75;;;25.72;19.45
49397;BME280;35615;41.410;2.194;2023-01-29T14:15:18;102327.56;;;25.47;19.97
49397;BME280;35615;41.410;2.194;2023-01-29T14:18:22;102331.06;;;25.38;20.20
49397;BME280;35615;41.410;2.194;2023-01-29T14:24:18;102335.25;;;24.78;20.67
49397;BME280;35615;41.410;2.194;2023-01-29T14:27:04;102330.66;;;24.42;21.37
49397;BME280;35615;41.410;2.194;2023-01-29T14:29:46;102341.06;;;24.27;21.59
49397;BME280;35615;41.410;2.194;2023-01-29T14:32:21;102333.88;;;24.04;21.83
49397;BME280;35615;41.410;2.194;2023-01-29T14:35:17;102345.56;;;22.72;23.07
49397;BME280;35615;41.410;2.194;2023-01-29T14:38:04;102341.75;;;23.12;22.73
49397;BME280;35615;41.410;2.194;2023-01-29T14:41:02;102348.66;;;23.02;23.42
49397;BME280;35615;41.410;2.194;2023-01-29T14:43:36;102356.91;;;22.65;23.67
49397;BME280;35615;41.410;2.194;2023-01-29T14:49:10;102363.75;;;22.50;24.31
49397;BME280;35615;41.410;2.194;2023-01-29T14:51:45;102360.94;;;22.40;23.95
49397;BME280;35615;41.410;2.194;2023-01-29T14:54:39;102361.31;;;22.08;24.76
49397;BME280;35615;41.410;2.194;2023-01-29T14:57:14;102359.84;;;22.27;24.33
49397;BME280;35615;41.410;2.194;2023-01-29T15:02:29;102359.72;;;21.68;25.05
49397;BME280;35615;41.410;2.194;2023-01-29T15:05:30;102360.75;;;21.29;25.88
49397;BME280;35615;41.410;2.194;2023-01-29T15:08:32;102366.41;;;21.08;26.16
49397;BME280;35615;41.410;2.194;2023-01-29T15:11:54;102368.81;;;20.98;26.11
49397;BME280;35615;41.410;2.194;2023-01-29T15:14:35;102372.13;;;20.89;26.22
49397;BME280;35615;41.410;2.194;2023-01-29T15:17:24;102379.84;;;20.81;26.35
49397;BME280;35615;41.410;2.194;2023-01-29T15:19:59;102375.59;;;20.49;26.58
49397;BME280;35615;41.410;2.194;2023-01-29T15:22:41;102387.34;;;19.31;28.19
49397;BME280;35615;41.410;2.194;2023-01-29T15:25:16;102395.44;;;19.70;27.46
49397;BME280;35615;41.410;2.194;2023-01-29T15:27:51;102393.66;;;18.79;28.33
49397;BME280;35615;41.410;2.194;2023-01-29T15:30:40;102395.38;;;18.78;29.10
49397;BME280;35615;41.410;2.194;2023-01-29T15:33:16;102401.72;;;19.15;28.16
49397;BME280;35615;41.410;2.194;2023-01-29T15:36:02;102407.13;;;19.20;28.57
49397;BME280;35615;41.410;2.194;2023-01-29T15:38:34;102414.13;;;18.38;29.85
49397;BME280;35615;41.410;2.194;2023-01-29T15:41:17;102410.81;;;17.91;30.64
49397;BME280;35615;41.410;2.194;2023-01-29T15:44:19;102424.53;;;17.38;31.69
49397;BME280;35615;41.410;2.194;2023-01-29T15:46:56;102423.56;;;17.12;32.10
49397;BME280;35615;41.410;2.194;2023-01-29T15:49:58;102426.63;;;17.00;31.66
49397;BME280;35615;41.410;2.194;2023-01-29T15:52:37;102422.06;;;16.31;32.97
49397;BME280;35615;41.410;2.194;2023-01-29T15:55:22;102425.28;;;16.25;33.95
49397;BME280;35615;41.410;2.194;2023-01-29T15:57:58;102427.44;;;16.14;33.36
49397;BME280;35615;41.410;2.194;2023-01-29T16:00:34;102426.22;;;16.06;33.96
49397;BME280;35615;41.410;2.194;2023-01-29T16:03:26;102433.47;;;16.13;33.90
49397;BME280;35615;41.410;2.194;2023-01-29T16:06:01;102425.22;;;16.44;32.99
49397;BME280;35615;41.410;2.194;2023-01-29T16:08:56;102435.38;;;16.17;34.20
49397;BME280;35615;41.410;2.194;2023-01-29T16:11:25;102425.78;;;16.16;34.37
49397;BME280;35615;41.410;2.194;2023-01-29T16:13:57;102429.66;;;16.26;32.59
49397;BME280;35615;41.410;2.194;2023-01-29T16:16:26;102425.03;;;16.19;32.83